Latest Weather Observations for Albury

IDV60801

Issued at 5:02 pm EST Monday 25 May 2015 (issued every 30 minutes, with the page automatically refreshed every 10 minutes)

About weather observations | Map of weather stations | Latest weather observations for VIC | Other Formats
Station Details ID: 072160 Name: ALBURY AIRPORT AWS Lat: -36.07 Lon: 146.95 Height: 163.5 m
Data from the previous 72 hours. | See also: Recent months at Albury
Date/Time
EST
Temp
°C
App
Temp
°C
Dew
Point
Rel
Hum
%
Delta-T
°C
Wind Press
QNH
hPa
Press
MSL
hPa
Rain
since 9 am
mm
Dir
 
Spd
km/h
Gust
km/h
Spd
kts
Gust
kts
25/05:00pm 12.3 10.2 6.6 68 2.7 SE 7 11 4 6 1029.2 1029.3 0.0
25/04:30pm 14.2 11.9 5.8 57 4.0 ESE 7 9 4 5 1029.3 1029.4 0.0
25/04:00pm 14.8 12.6 6.1 56 4.2 SE 7 11 4 6 1029.4 1029.5 0.0
25/03:30pm 14.6 12.5 5.9 56 4.2 ESE 6 9 3 5 1029.6 1029.7 0.0
25/03:00pm 14.2 12.0 6.1 58 3.9 SE 7 9 4 5 1029.8 1029.9 0.0
25/02:30pm 14.8 12.3 6.6 58 4.0 ESE 9 13 5 7 1030.0 1030.1 0.0
25/02:00pm 13.9 11.4 6.7 62 3.5 E 9 11 5 6 1030.4 1030.5 0.0
25/01:30pm 13.5 12.4 6.8 64 3.2 SSE 2 7 1 4 1031.0 1031.1 0.0
25/01:00pm 12.9 11.3 6.3 64 3.1 SE 4 7 2 4 1031.3 1031.4 0.0
25/12:30pm 12.6 9.8 5.1 60 3.5 ESE 9 13 5 7 1031.3 1031.4 0.0
25/12:00pm 12.7 10.2 6.5 66 3.0 SE 9 11 5 6 1031.9 1032.0 0.0
25/11:30am 11.9 9.7 5.3 64 3.1 E 6 7 3 4 1032.4 1032.6 0.0
25/11:00am 11.0 8.8 5.5 69 2.5 ESE 6 11 3 6 1032.6 1032.8 0.0
25/10:30am 10.1 7.9 5.5 73 2.1 E 6 11 3 6 1032.9 1033.1 0.0
25/10:00am 9.9 8.4 4.9 71 2.2 ENE 2 7 1 4 1032.9 1033.1 0.0
25/09:30am 7.6 5.7 4.9 83 1.2 E 4 7 2 4 1032.8 1033.0 0.0
25/09:00am 6.9 6.1 6.3 96 0.3 CALM 0 0 0 0 1032.9 1033.1 0.0
25/08:30am 5.1 3.9 4.5 96 0.3 CALM 0 0 0 0 1032.7 1032.9 0.0
25/08:00am 4.7 3.1 4.4 98 0.1 NNE 2 7 1 4 1032.7 1032.9 0.0
25/07:30am 3.8 1.2 3.4 97 0.2 WNW 6 9 3 5 1032.7 1032.9 0.0
25/07:00am 3.5 1.7 3.2 98 0.1 SE 2 9 1 5 1032.4 1032.6 0.0
25/06:30am 3.8 2.4 3.5 98 0.1 CALM 0 0 0 0 1032.2 1032.4 0.0
25/06:00am 3.7 1.2 3.6 99 0.0 NE 6 7 3 4 1032.0 1032.1 0.0
25/05:30am 3.5 1.3 3.4 99 0.0 WNW 4 6 2 3 1032.1 1032.2 0.0
25/05:00am 3.2 0.9 2.9 98 0.1 WNW 4 9 2 5 1031.8 1031.9 0.0
25/04:30am 3.2 0.5 2.8 97 0.2 NNW 6 7 3 4 1031.6 1031.7 0.0
25/04:00am 3.6 0.4 3.3 98 0.1 NNW 9 11 5 6 1031.3 1031.4 0.0
25/03:30am 3.5 0.9 3.2 98 0.1 NNW 6 7 3 4 1031.7 1031.8 0.0
25/03:00am 3.0 1.4 2.6 97 0.2 CALM 0 0 0 0 1031.9 1032.0 0.0
25/02:30am 3.6 2.2 3.3 98 0.1 CALM 0 0 0 0 1032.1 1032.2 0.0
25/02:00am 3.2 1.6 2.6 96 0.2 CALM 0 0 0 0 1032.1 1032.2 0.0
25/01:30am 4.2 2.9 3.9 98 0.1 CALM 0 0 0 0 1032.3 1032.5 0.0
25/01:00am 3.4 1.9 2.8 96 0.2 CALM 0 0 0 0 1032.2 1032.4 0.0
25/12:30am 4.1 2.7 3.8 98 0.1 CALM 0 0 0 0 1032.4 1032.6 0.0
25/12:00am 3.9 1.2 3.6 98 0.1 N 7 9 4 5 1032.5 1032.7 0.0
 
Date/Time
EST
Temp
°C
App
Temp
°C
Dew
Point
Rel
Hum
%
Delta-T
°C
Wind Press
QNH
hPa
Press
MSL
hPa
Rain
since 9 am
mm
Dir
 
Spd
km/h
Gust
km/h
Spd
kts
Gust
kts
24/11:30pm 3.9 1.4 3.5 97 0.2 N 6 7 3 4 1032.5 1032.7 0.0
24/11:00pm 3.2 1.6 2.5 95 0.3 CALM 0 0 0 0 1032.3 1032.5 0.0
24/10:30pm 3.5 2.0 2.8 95 0.3 CALM 0 0 0 0 1032.3 1032.5 0.0
24/10:00pm 3.9 1.3 3.3 96 0.2 N 6 7 3 4 1032.4 1032.6 0.0
24/09:30pm 4.6 3.0 4.3 98 0.1 NW 2 7 1 4 1032.3 1032.5 0.0
24/09:28pm 4.4 3.1 4.1 98 0.1 CALM 0 0 0 0 1032.3 1032.5 0.0
24/09:00pm 3.8 2.3 3.1 95 0.3 CALM 0 0 0 0 1032.1 1032.2 0.0
24/08:46pm 4.7 3.4 4.0 95 0.3 CALM 0 0 0 0 1032.0 1032.1 0.0
24/08:30pm 4.7 2.6 3.7 93 0.4 E 4 6 2 3 1031.9 1032.0 0.0
24/08:00pm 6.1 3.9 5.1 93 0.4 ENE 6 7 3 4 1032.0 1032.1 0.0
24/07:30pm 6.6 5.6 5.6 93 0.4 CALM 0 0 0 0 1032.0 1032.1 0.0
24/07:00pm 7.5 5.8 6.0 90 0.7 N 4 9 2 5 1031.7 1031.8 0.0
24/06:30pm 7.8 6.9 6.1 89 0.8 CALM 0 0 0 0 1031.4 1031.5 0.0
24/06:00pm 9.2 8.4 6.6 84 1.2 CALM 0 0 0 0 1031.1 1031.2 0.0
24/05:30pm 9.8 8.9 6.2 78 1.7 CALM 0 0 0 0 1031.0 1031.1 0.0
24/05:00pm 11.3 10.6 6.8 74 2.1 CALM 0 6 0 3 1030.9 1031.0 0.0
24/04:30pm 12.4 10.5 6.9 69 2.7 SSE 6 7 3 4 1030.8 1030.9 0.0
24/04:00pm 13.0 10.9 6.8 66 3.0 S 7 9 4 5 1030.5 1030.6 0.0
24/03:30pm 13.1 11.1 6.9 66 3.0 SSE 7 9 4 5 1030.6 1030.7 0.0
24/03:00pm 13.3 10.9 6.9 65 3.1 ESE 9 11 5 6 1030.5 1030.6 0.0
24/02:30pm 13.3 10.8 6.6 64 3.2 SE 9 11 5 6 1030.8 1030.9 0.0
24/02:00pm 13.3 11.1 6.2 62 3.4 ESE 7 11 4 6 1030.9 1031.0 0.0
24/01:30pm 13.4 12.0 5.6 59 3.7 E 2 7 1 4 1031.3 1031.4 0.0
24/01:00pm 12.8 10.6 5.2 60 3.5 SW 6 9 3 5 1031.7 1031.8 0.0
24/12:30pm 11.9 9.7 5.1 63 3.2 ESE 6 9 3 5 1031.9 1032.0 0.0
24/12:00pm 11.7 9.3 5.1 64 3.0 E 7 11 4 6 1032.2 1032.4 0.0
24/11:30am 10.5 8.0 4.6 67 2.7 ESE 7 11 4 6 1032.8 1033.0 0.0
24/11:00am 9.2 6.6 4.2 71 2.2 E 7 11 4 6 1033.3 1033.5 0.0
24/10:30am 8.3 5.7 4.3 76 1.8 E 7 11 4 6 1033.6 1033.8 0.0
24/10:00am 6.8 4.2 3.4 79 1.4 ENE 6 9 3 5 1033.3 1033.5 0.0
24/09:30am 6.0 4.6 3.7 85 1.0 CALM 0 0 0 0 1033.4 1033.6 0.0
24/09:00am 3.5 2.1 3.4 99 0.0 CALM 0 0 0 0 1033.1 1033.3 0.0
24/08:30am 1.2 -0.6 1.1 99 0.0 CALM 0 0 0 0 1032.9 1033.1 0.0
24/08:21am 1.2 -0.6 1.1 99 0.0 CALM 0 0 0 0 1032.7 1032.9 0.0
24/08:18am 1.0 -0.8 0.9 99 0.0 CALM 0 0 0 0 1032.6 1032.8 0.0
24/08:00am 0.7 -1.2 0.6 99 0.0 CALM 0 6 0 3 1032.4 1032.6 0.0
24/07:30am 0.3 -1.7 0.2 99 0.0 CALM 0 0 0 0 1032.1 1032.2 0.0
24/07:00am 0.3 -1.7 0.2 99 0.0 CALM 0 0 0 0 1031.8 1031.9 0.0
24/06:30am 0.3 -1.7 0.2 99 0.0 CALM 0 0 0 0 1031.7 1031.8 0.0
24/06:16am 0.2 -2.1 0.1 99 0.0 NNW 2 6 1 3 1031.5 1031.6 0.0
24/06:15am 0.2 -2.1 0.1 99 0.0 NNW 2 6 1 3 1031.5 1031.6 0.0
24/06:00am -0.1 -2.9 -0.2 99 0.0 NNW 4 9 2 5 1031.3 1031.4 0.0
24/05:58am -0.2 -3.4 -0.3 99 0.0 NNW 6 9 3 5 1031.3 1031.4 0.0
24/05:30am 0.2 -1.8 -0.1 98 0.1 CALM 0 0 0 0 1031.1 1031.2 0.0
24/05:00am 0.5 -1.4 0.4 99 0.0 CALM 0 0 0 0 1030.9 1031.0 0.0
24/04:48am 0.5 -1.5 0.2 98 0.1 CALM 0 0 0 0 1030.9 1031.0 0.0
24/04:30am 0.8 -1.5 0.5 98 0.1 NNW 2 7 1 4 1030.7 1030.8 0.0
24/04:00am 0.8 -1.1 0.4 97 0.1 CALM 0 0 0 0 1030.5 1030.6 0.0
24/03:31am 1.0 -0.8 0.9 99 0.0 CALM 0 0 0 0 1030.8 1030.9 0.0
24/03:30am 1.2 -0.6 1.1 99 0.0 CALM 0 0 0 0 1030.8 1030.9 0.0
24/03:00am 1.3 -0.5 1.0 98 0.1 CALM 0 0 0 0 1030.9 1031.0 0.0
24/02:50am 0.8 -1.1 0.4 97 0.1 CALM 0 0 0 0 1030.9 1031.0 0.0
24/02:33am 1.0 -0.9 0.7 98 0.1 CALM 0 0 0 0 1030.9 1031.0 0.0
24/02:30am 1.6 -0.2 1.3 98 0.1 CALM 0 0 0 0 1030.9 1031.0 0.0
24/02:10am 1.1 -0.8 0.7 97 0.1 CALM 0 0 0 0 1031.0 1031.1 0.0
24/02:00am 1.6 -0.6 1.2 97 0.2 ENE 2 6 1 3 1030.9 1031.0 0.0
24/01:39am 2.0 -0.9 1.6 97 0.2 NE 6 9 3 5 1030.8 1030.9 0.0
24/01:30am 2.4 0.7 2.1 98 0.1 CALM 0 0 0 0 1030.7 1030.8 0.0
24/01:23am 2.4 0.7 2.1 98 0.1 CALM 0 0 0 0 1030.8 1030.9 0.0
24/01:12am 2.9 1.3 2.6 98 0.1 CALM 0 0 0 0 1030.8 1030.9 0.0
24/01:00am 2.9 1.3 2.6 98 0.1 CALM 0 0 0 0 1030.8 1030.9 0.0
24/12:39am 2.7 1.0 2.1 96 0.2 CALM 0 0 0 0 1030.8 1030.9 0.0
24/12:30am 2.9 1.3 2.5 97 0.2 CALM 0 0 0 0 1030.7 1030.8 0.0
24/12:00am 3.2 1.6 2.6 96 0.2 CALM 0 0 0 0 1030.7 1030.8 0.0
 
Date/Time
EST
Temp
°C
App
Temp
°C
Dew
Point
Rel
Hum
%
Delta-T
°C
Wind Press
QNH
hPa
Press
MSL
hPa
Rain
since 9 am
mm
Dir
 
Spd
km/h
Gust
km/h
Spd
kts
Gust
kts
23/11:30pm 3.6 1.7 3.0 96 0.2 NNE 2 6 1 3 1030.8 1030.9 0.0
23/11:00pm 4.0 2.6 3.3 95 0.3 CALM 0 0 0 0 1030.7 1030.8 0.0
23/10:30pm 4.5 3.1 3.8 95 0.3 CALM 0 0 0 0 1030.6 1030.7 0.0
23/10:00pm 4.7 3.3 3.7 93 0.4 CALM 0 0 0 0 1030.7 1030.8 0.0
23/09:30pm 5.1 3.8 4.2 94 0.4 CALM 0 0 0 0 1030.8 1030.9 0.0
23/09:00pm 5.0 3.7 4.1 94 0.4 CALM 0 0 0 0 1030.7 1030.8 0.0
23/08:30pm 5.3 4.0 4.3 93 0.4 CALM 0 0 0 0 1030.6 1030.7 0.0
23/08:00pm 6.0 4.8 4.5 90 0.6 CALM 0 0 0 0 1030.5 1030.6 0.0
23/07:30pm 6.8 5.6 4.8 87 0.9 CALM 0 0 0 0 1030.4 1030.5 0.0
23/07:00pm 7.8 6.7 5.3 84 1.1 CALM 0 0 0 0 1030.2 1030.3 0.0
23/06:30pm 8.8 6.6 5.4 79 1.5 NNW 6 6 3 3 1030.1 1030.2 0.0
23/06:00pm 10.7 8.5 6.3 74 2.1 NNW 7 9 4 5 1030.0 1030.1 0.0
23/05:30pm 10.1 6.8 4.7 69 2.4 W 11 13 6 7 1029.7 1029.8 0.0
23/05:00pm 12.7 10.0 5.8 63 3.2 W 9 11 5 6 1029.5 1029.6 0.0
23/04:30pm 14.0 11.0 5.9 58 3.9 W 11 13 6 7 1029.5 1029.6 0.0
23/04:00pm 15.6 13.1 6.6 55 4.4 W 9 13 5 7 1029.5 1029.6 0.0
23/03:30pm 16.2 14.1 5.8 50 5.1 WNW 6 9 3 5 1029.5 1029.6 0.0
23/03:00pm 16.5 14.8 5.8 49 5.2 NW 4 11 2 6 1029.3 1029.4 0.0
23/02:30pm 16.5 14.5 6.1 50 5.1 E 6 7 3 4 1029.3 1029.4 0.0
23/02:00pm 16.2 14.0 6.1 51 4.9 WNW 7 13 4 7 1029.4 1029.5 0.0
23/01:30pm 15.3 13.7 4.4 48 5.1 NE 2 7 1 4 1029.8 1029.9 0.0
23/01:00pm 14.3 12.4 4.9 53 4.4 ENE 4 7 2 4 1030.0 1030.1 0.0
23/12:30pm 14.1 11.8 4.9 54 4.3 NE 6 9 3 5 1030.3 1030.4 0.0
23/12:00pm 12.5 10.7 5.2 61 3.4 S 4 7 2 4 1030.7 1030.8 0.0
23/11:30am 11.9 9.6 4.6 61 3.3 SE 6 9 3 5 1031.3 1031.4 0.0
23/11:00am 10.9 8.4 3.9 62 3.1 E 6 9 3 5 1031.6 1031.7 0.0
23/10:30am 9.9 7.5 4.3 68 2.5 ESE 6 11 3 6 1031.9 1032.0 0.0
23/10:00am 8.6 6.9 4.0 73 2.0 S 2 6 1 3 1032.0 1032.1 0.0
23/09:30am 8.4 7.0 3.7 72 2.0 CALM 0 0 0 0 1031.9 1032.0 0.0
23/09:00am 6.1 3.9 3.3 82 1.2 WSW 4 7 2 4 1031.7 1031.8 0.0
23/08:30am 4.7 3.1 2.6 86 0.9 CALM 0 0 0 0 1031.5 1031.6 0.0
23/08:00am 3.2 0.8 2.0 92 0.5 NNW 4 6 2 3 1031.4 1031.5 0.0
23/07:30am 2.0 0.2 1.3 95 0.3 CALM 0 0 0 0 1031.1 1031.2 0.0
23/07:00am 2.2 -0.7 1.3 94 0.3 N 6 9 3 5 1030.8 1030.9 0.0
23/06:30am 2.3 -0.6 1.3 93 0.4 NNE 6 7 3 4 1030.5 1030.6 0.0
23/06:00am 2.2 0.1 1.5 95 0.3 NE 2 7 1 4 1030.1 1030.2 0.0
23/05:30am 2.2 0.4 1.3 94 0.3 CALM 0 0 0 0 1030.0 1030.1 0.0
23/05:00am 2.4 0.6 1.5 94 0.3 CALM 0 0 0 0 1029.7 1029.8 0.0
23/04:30am 2.1 0.2 0.8 91 0.5 CALM 0 0 0 0 1029.7 1029.8 0.0
23/04:00am 2.8 1.0 1.5 91 0.5 CALM 0 0 0 0 1029.5 1029.6 0.0
23/03:30am 3.8 2.2 2.2 89 0.6 CALM 0 0 0 0 1029.4 1029.5 0.0
23/03:00am 4.5 2.9 2.7 88 0.7 CALM 0 0 0 0 1029.5 1029.6 0.0
23/02:30am 4.3 2.0 2.5 88 0.7 NNW 4 9 2 5 1029.6 1029.7 0.0
23/02:00am 4.9 2.3 3.1 88 0.7 N 6 9 3 5 1029.5 1029.6 0.0
23/01:30am 5.0 3.5 2.9 86 0.9 CALM 0 0 0 0 1029.4 1029.5 0.0
23/01:00am 5.7 4.4 3.9 88 0.8 CALM 0 6 0 3 1029.3 1029.4 0.0
23/12:30am 5.1 2.4 3.6 90 0.6 S 7 11 4 6 1029.3 1029.4 0.0
23/12:00am 5.3 3.9 3.6 89 0.7 CALM 0 0 0 0 1029.2 1029.3 0.0
 
Date/Time
EST
Temp
°C
App
Temp
°C
Dew
Point
Rel
Hum
%
Delta-T
°C
Wind Press
QNH
hPa
Press
MSL
hPa
Rain
since 9 am
mm
Dir
 
Spd
km/h
Gust
km/h
Spd
kts
Gust
kts
22/11:30pm 5.7 3.5 3.5 86 0.9 NNW 4 6 2 3 1029.1 1029.2 0.0
22/11:00pm 5.9 3.2 3.6 85 1.0 NW 7 9 4 5 1029.0 1029.1 0.0
22/10:30pm 6.8 4.4 4.1 83 1.2 NW 6 6 3 3 1028.8 1028.9 0.0
22/10:00pm 7.3 5.2 3.7 78 1.5 NNW 4 7 2 4 1028.6 1028.7 0.0
22/09:30pm 9.5 6.5 3.9 68 2.5 ESE 9 13 5 7 1028.6 1028.7 0.0
22/09:00pm 10.8 7.8 4.3 64 2.9 SE 9 15 5 8 1028.3 1028.5 0.0
22/08:30pm 11.2 8.3 4.7 64 3.0 SE 9 13 5 7 1028.0 1028.2 0.0
22/08:00pm 11.3 9.4 4.7 64 3.0 SE 4 9 2 5 1027.7 1027.9 0.0
22/07:30pm 11.3 8.0 4.5 63 3.1 SSE 11 13 6 7 1027.4 1027.6 0.0
22/07:00pm 12.1 8.0 4.6 60 3.4 SSE 15 22 8 12 1027.3 1027.5 0.0
22/06:30pm 12.4 8.7 4.6 59 3.6 SSE 13 24 7 13 1027.0 1027.1 0.0
22/06:00pm 12.9 10.2 5.6 61 3.4 SE 9 13 5 7 1026.6 1026.7 0.0
22/05:30pm 13.0 10.9 5.9 62 3.4 ESE 6 7 3 4 1026.3 1026.4 0.0

Other Formats:

Comma delimited format used in spreadsheet applications
http://www.bom.gov.au/fwo/IDV60801/IDV60801.95896.axf

JavaScript Object Notation format (JSON) in row-major order
http://www.bom.gov.au/fwo/IDV60801/IDV60801.95896.json